createdAt,value
2023-12-17T00:00:56.452Z,102821.31
2023-12-17T00:03:23.528Z,102823.00
2023-12-17T00:05:50.468Z,102819.91
2023-12-17T00:08:17.178Z,102813.81
2023-12-17T00:10:44.081Z,102817.22
2023-12-17T00:13:10.842Z,102814.81
2023-12-17T00:15:37.534Z,102838.00
2023-12-17T00:18:05.083Z,102830.13
2023-12-17T00:20:31.849Z,102821.59
2023-12-17T00:22:58.543Z,102824.66
2023-12-17T00:25:25.208Z,102814.28
2023-12-17T00:27:52.047Z,102810.03
2023-12-17T00:30:18.842Z,102800.97
2023-12-17T00:32:45.713Z,102805.22
2023-12-17T00:35:12.731Z,102809.47
2023-12-17T00:37:39.740Z,102811.34
2023-12-17T00:40:07.271Z,102823.31
2023-12-17T00:42:34.250Z,102825.38
2023-12-17T00:45:01.074Z,102825.22
2023-12-17T00:47:27.914Z,102834.94
2023-12-17T00:49:54.727Z,102828.63
2023-12-17T00:52:21.630Z,102826.56
2023-12-17T00:54:48.427Z,102825.44
2023-12-17T00:57:15.557Z,102827.47
2023-12-17T00:59:42.414Z,102828.47
2023-12-17T01:02:09.097Z,102826.09
2023-12-17T01:04:35.796Z,102826.09
2023-12-17T01:07:02.695Z,102819.63
2023-12-17T01:09:29.482Z,102821.31
2023-12-17T01:11:56.344Z,102818.94
2023-12-17T01:14:23.110Z,102825.94
2023-12-17T01:16:50.086Z,102826.09
2023-12-17T01:19:16.817Z,102835.44
2023-12-17T01:21:43.663Z,102829.69
2023-12-17T01:24:11.719Z,102827.81
2023-12-17T01:26:38.606Z,102818.09
2023-12-17T01:29:05.399Z,102822.69
2023-12-17T01:31:32.083Z,102820.31
2023-12-17T01:33:59.126Z,102825.41
2023-12-17T01:36:26.116Z,102817.09
2023-12-17T01:38:53.016Z,102822.69
2023-12-17T01:41:19.741Z,102828.84
2023-12-17T01:43:46.845Z,102845.84
2023-12-17T01:46:15.523Z,102855.56
2023-12-17T01:48:43.280Z,102856.59
2023-12-17T01:51:10.983Z,102856.41
2023-12-17T01:53:38.073Z,102853.38
2023-12-17T01:56:06.570Z,102851.97
2023-12-17T01:58:33.332Z,102835.81
2023-12-17T02:01:00.562Z,102821.50
2023-12-17T02:03:27.538Z,102805.66
2023-12-17T02:05:54.430Z,102791.34
2023-12-17T02:08:21.243Z,102781.81
2023-12-17T02:10:47.948Z,102774.34
2023-12-17T02:13:14.641Z,102776.22
2023-12-17T02:15:41.382Z,102780.47
2023-12-17T02:18:08.271Z,102783.19
2023-12-17T02:20:35.378Z,102795.09
2023-12-17T02:23:05.441Z,102787.63
2023-12-17T02:25:32.318Z,102798.69
2023-12-17T02:27:59.602Z,102804.13
2023-12-17T02:30:26.591Z,102799.88
2023-12-17T02:32:53.601Z,102792.38
2023-12-17T02:35:21.047Z,102788.97
2023-12-17T02:37:47.707Z,102779.78
2023-12-17T02:40:14.580Z,102802.25
2023-12-17T02:42:41.375Z,102801.75
2023-12-17T02:45:09.085Z,102804.13
2023-12-17T02:47:36.043Z,102796.13
2023-12-17T02:50:03.133Z,102808.72
2023-12-17T02:52:29.988Z,102808.88
2023-12-17T02:54:56.646Z,102804.63
2023-12-17T02:57:23.472Z,102804.63
2023-12-17T02:59:50.228Z,102807.34
2023-12-17T03:02:16.976Z,102803.28
2023-12-17T03:04:43.753Z,102794.41
2023-12-17T03:07:10.563Z,102792.22
2023-12-17T03:09:37.326Z,102801.75
2023-12-17T03:12:04.890Z,102811.13
2023-12-17T03:14:34.533Z,102804.47
2023-12-17T03:17:01.497Z,102806.50
2023-12-17T03:19:28.283Z,102793.38
2023-12-17T03:21:55.016Z,102771.97
2023-12-17T03:24:21.779Z,102785.41
2023-12-17T03:26:48.751Z,102782.53
2023-12-17T03:29:15.611Z,102779.44
2023-12-17T03:31:42.323Z,102773.66
2023-12-17T03:34:09.129Z,102763.78
2023-12-17T03:36:36.007Z,102766.16
2023-12-17T03:39:02.961Z,102766.50
2023-12-17T03:41:30.051Z,102768.19
2023-12-17T03:43:58.316Z,102768.38
2023-12-17T03:46:27.337Z,102766.81
2023-12-17T03:48:54.551Z,102772.13
2023-12-17T03:51:21.889Z,102776.03
2023-12-17T03:53:49.936Z,102784.56
2023-12-17T03:56:17.599Z,102784.72
2023-12-17T03:58:44.437Z,102786.59
2023-12-17T04:01:11.450Z,102796.47
2023-12-17T04:03:38.512Z,102800.91
2023-12-17T04:06:07.222Z,102794.09
2023-12-17T04:08:34.193Z,102788.97
2023-12-17T04:11:00.836Z,102790.50
2023-12-17T04:13:27.686Z,102803.97
2023-12-17T04:15:54.338Z,102801.75
2023-12-17T04:18:21.522Z,102801.25
2023-12-17T04:20:48.282Z,102803.63
2023-12-17T04:23:15.651Z,102794.41
2023-12-17T04:25:42.346Z,102792.38
2023-12-17T04:28:09.167Z,102781.81
2023-12-17T04:30:35.874Z,102778.44
2023-12-17T04:33:02.987Z,102769.25
2023-12-17T04:35:29.787Z,102768.53
2023-12-17T04:37:56.513Z,102772.81
2023-12-17T04:40:23.248Z,102778.78
2023-12-17T04:42:50.029Z,102786.94
2023-12-17T04:45:16.689Z,102785.59
2023-12-17T04:47:43.941Z,102790.34
2023-12-17T04:50:10.971Z,102802.59
2023-12-17T04:52:38.253Z,102793.75
2023-12-17T04:55:05.503Z,102780.47
2023-12-17T04:57:32.243Z,102780.28
2023-12-17T04:59:59.145Z,102788.66
2023-12-17T05:02:25.875Z,102794.25
2023-12-17T05:04:52.670Z,102789.66
2023-12-17T05:07:19.644Z,102796.50
2023-12-17T05:09:46.397Z,102809.94
2023-12-17T05:12:13.159Z,102817.06
2023-12-17T05:14:39.963Z,102810.44
2023-12-17T05:17:06.672Z,102813.50
2023-12-17T05:19:33.727Z,102799.38
2023-12-17T05:22:00.601Z,102806.00
2023-12-17T05:24:27.356Z,102807.53
2023-12-17T05:26:54.115Z,102802.25
2023-12-17T05:29:20.861Z,102807.00
2023-12-17T05:31:47.652Z,102821.66
2023-12-17T05:34:14.620Z,102809.56
2023-12-17T05:36:41.466Z,102788.97
2023-12-17T05:39:08.230Z,102788.97
2023-12-17T05:41:35.194Z,102804.97
2023-12-17T05:44:01.870Z,102804.97
2023-12-17T05:46:28.530Z,102808.72
2023-12-17T05:48:55.535Z,102792.72
2023-12-17T05:51:22.520Z,102792.88
2023-12-17T05:53:49.263Z,102798.88
2023-12-17T05:56:16.069Z,102797.16
2023-12-17T05:58:43.735Z,102793.91
2023-12-17T06:01:12.043Z,102803.97
2023-12-17T06:03:39.600Z,102800.91
2023-12-17T06:06:07.653Z,102792.03
2023-12-17T06:08:34.784Z,102799.38
2023-12-17T06:11:01.457Z,102804.28
2023-12-17T06:13:28.138Z,102795.25
2023-12-17T06:15:54.840Z,102818.78
2023-12-17T06:18:21.708Z,102821.16
2023-12-17T06:20:48.485Z,102830.53
2023-12-17T06:23:15.361Z,102829.34
2023-12-17T06:25:41.985Z,102815.19
2023-12-17T06:28:08.644Z,102811.09
2023-12-17T06:30:35.406Z,102796.63
2023-12-17T06:33:02.384Z,102802.59
2023-12-17T06:35:29.176Z,102801.75
2023-12-17T06:37:55.961Z,102804.97
2023-12-17T06:40:22.902Z,102818.59
2023-12-17T06:42:49.698Z,102827.47
2023-12-17T06:45:17.359Z,102824.72
2023-12-17T06:47:46.099Z,102823.34
2023-12-17T06:50:13.744Z,102812.09
2023-12-17T06:52:54.519Z,102804.28
2023-12-17T06:55:21.661Z,102811.09
2023-12-17T06:57:48.298Z,102807.50
2023-12-17T07:00:16.597Z,102822.16
2023-12-17T07:02:43.713Z,102822.00
2023-12-17T07:05:10.510Z,102817.41
2023-12-17T07:07:37.298Z,102822.00
2023-12-17T07:10:04.723Z,102812.44
2023-12-17T07:12:31.415Z,102822.00
2023-12-17T07:14:58.353Z,102822.66
2023-12-17T07:17:25.202Z,102817.22
2023-12-17T07:19:51.902Z,102817.72
2023-12-17T07:22:18.903Z,102819.25
2023-12-17T07:24:45.528Z,102840.19
2023-12-17T07:27:12.234Z,102846.69
2023-12-17T07:29:39.071Z,102838.66
2023-12-17T07:32:05.928Z,102836.09
2023-12-17T07:34:32.799Z,102832.13
2023-12-17T07:37:01.694Z,102825.31
2023-12-17T07:39:28.667Z,102818.56
2023-12-17T07:41:55.551Z,102811.88
2023-12-17T07:44:22.476Z,102811.34
2023-12-17T07:46:49.209Z,102816.09
2023-12-17T07:49:16.191Z,102814.06
2023-12-17T07:51:43.637Z,102825.56
2023-12-17T07:54:10.661Z,102830.13
2023-12-17T07:56:41.620Z,102842.22
2023-12-17T07:59:08.420Z,102836.41
2023-12-17T08:01:35.593Z,102842.56
2023-12-17T08:04:05.670Z,102851.56
2023-12-17T08:06:35.099Z,102859.75
2023-12-17T08:09:03.939Z,102855.81
2023-12-17T08:11:30.871Z,102851.53
2023-12-17T08:13:57.790Z,102854.28
2023-12-17T08:16:26.287Z,102861.59
2023-12-17T08:18:53.417Z,102844.38
2023-12-17T08:21:20.473Z,102845.72
2023-12-17T08:23:47.438Z,102853.50
2023-12-17T08:26:14.273Z,102856.38
2023-12-17T08:28:40.935Z,102861.34
2023-12-17T08:31:11.053Z,102877.06
2023-12-17T08:33:39.163Z,102879.16
2023-12-17T08:36:06.484Z,102886.44
2023-12-17T08:38:33.221Z,102896.16
2023-12-17T08:40:59.970Z,102892.44
2023-12-17T08:43:26.872Z,102904.00
2023-12-17T08:45:53.581Z,102911.81
2023-12-17T08:48:20.382Z,102903.72
2023-12-17T08:50:47.278Z,102892.31
2023-12-17T08:53:14.055Z,102891.38
2023-12-17T08:55:40.977Z,102877.25
2023-12-17T08:58:07.660Z,102870.06
2023-12-17T09:00:34.689Z,102869.22
2023-12-17T09:03:01.493Z,102863.13
2023-12-17T09:05:28.267Z,102860.88
2023-12-17T09:07:55.030Z,102861.34
2023-12-17T09:10:21.717Z,102871.94
2023-12-17T09:12:50.881Z,102866.44
2023-12-17T09:15:17.950Z,102855.84
2023-12-17T09:17:45.348Z,102856.13
2023-12-17T09:20:15.336Z,102854.22
2023-12-17T09:22:42.109Z,102838.91
2023-12-17T09:25:09.412Z,102834.38
2023-12-17T09:27:36.185Z,102837.25
2023-12-17T09:30:06.062Z,102833.19
2023-12-17T09:32:32.896Z,102829.66
2023-12-17T09:34:59.684Z,102833.91
2023-12-17T09:37:26.476Z,102840.47
2023-12-17T09:39:55.812Z,102833.38
2023-12-17T09:42:22.616Z,102821.44
2023-12-17T09:44:49.628Z,102815.81
2023-12-17T09:47:16.562Z,102826.53
2023-12-17T09:49:45.717Z,102835.00
2023-12-17T09:52:18.690Z,102841.34
2023-12-17T09:54:45.460Z,102836.66
2023-12-17T09:57:13.385Z,102845.38
2023-12-17T09:59:41.201Z,102842.19
2023-12-17T10:02:11.076Z,102838.44
2023-12-17T10:04:37.807Z,102836.41
2023-12-17T10:07:04.922Z,102840.75
2023-12-17T10:09:34.156Z,102834.69
2023-12-17T10:12:01.083Z,102825.75
2023-12-17T10:14:27.952Z,102819.00
2023-12-17T10:16:54.865Z,102836.69
2023-12-17T10:19:22.735Z,102828.22
2023-12-17T10:21:50.456Z,102824.41
2023-12-17T10:24:19.861Z,102826.09
2023-12-17T10:26:48.250Z,102827.78
2023-12-17T10:29:19.888Z,102817.31
2023-12-17T10:31:46.722Z,102814.19
2023-12-17T10:34:19.626Z,102816.03
2023-12-17T10:36:51.105Z,102823.13
2023-12-17T10:39:20.120Z,102822.13
2023-12-17T10:41:52.202Z,102827.66
2023-12-17T10:44:21.443Z,102811.69
2023-12-17T10:46:50.122Z,102808.88
2023-12-17T10:49:20.786Z,102802.88
2023-12-17T10:51:49.724Z,102788.94
2023-12-17T10:54:16.458Z,102793.72
2023-12-17T10:56:48.057Z,102795.16
2023-12-17T10:59:27.106Z,102800.13
2023-12-17T11:02:02.819Z,102793.03
2023-12-17T11:04:29.911Z,102788.63
2023-12-17T11:06:57.108Z,102772.34
2023-12-17T11:09:25.528Z,102777.53
2023-12-17T11:11:52.855Z,102778.97
2023-12-17T11:14:23.276Z,102784.53
2023-12-17T11:16:50.122Z,102783.31
2023-12-17T11:19:21.053Z,102782.91
2023-12-17T11:21:47.858Z,102782.59
2023-12-17T11:24:14.725Z,102779.84
2023-12-17T11:26:44.810Z,102781.91
2023-12-17T11:29:33.277Z,102784.84
2023-12-17T11:32:01.951Z,102785.78
2023-12-17T11:34:31.561Z,102786.53
2023-12-17T11:36:59.524Z,102771.75
2023-12-17T11:39:28.645Z,102779.38
2023-12-17T11:41:55.955Z,102778.28
2023-12-17T11:44:23.658Z,102779.00
2023-12-17T11:46:51.035Z,102773.03
2023-12-17T11:49:25.157Z,102786.78
2023-12-17T11:51:53.624Z,102797.97
2023-12-17T11:54:21.085Z,102811.06
2023-12-17T11:56:51.224Z,102808.13
2023-12-17T11:59:38.024Z,102804.25
2023-12-17T12:02:06.858Z,102794.91
2023-12-17T12:04:41.391Z,102791.53
2023-12-17T12:07:09.841Z,102796.63
2023-12-17T12:09:36.860Z,102791.56
2023-12-17T12:12:15.362Z,102782.75
2023-12-17T12:14:42.795Z,102787.84
2023-12-17T12:17:29.767Z,102773.34
2023-12-17T12:19:56.730Z,102774.72
2023-12-17T12:22:28.688Z,102771.22
2023-12-17T12:24:58.637Z,102778.19
2023-12-17T12:27:25.662Z,102763.72
2023-12-17T12:29:57.401Z,102755.75
2023-12-17T12:32:28.770Z,102764.25
2023-12-17T12:34:56.100Z,102767.06
2023-12-17T12:37:36.208Z,102771.41
2023-12-17T12:40:10.605Z,102784.41
2023-12-17T12:42:39.402Z,102777.31
2023-12-17T12:45:07.063Z,102771.03
2023-12-17T12:47:34.062Z,102760.00
2023-12-17T12:50:06.768Z,102756.50
2023-12-17T12:52:33.760Z,102758.19
2023-12-17T12:55:00.655Z,102763.75
2023-12-17T12:57:27.487Z,102763.19
2023-12-17T12:59:54.362Z,102764.34
2023-12-17T13:02:21.468Z,102765.94
2023-12-17T13:04:48.193Z,102776.72
2023-12-17T13:07:15.524Z,102771.63
2023-12-17T13:09:42.800Z,102764.81
2023-12-17T13:12:09.819Z,102761.66
2023-12-17T13:14:36.630Z,102766.00
2023-12-17T13:17:06.111Z,102760.25
2023-12-17T13:19:33.195Z,102761.69
2023-12-17T13:22:00.028Z,102755.38
2023-12-17T13:24:27.539Z,102760.09
2023-12-17T13:26:54.999Z,102761.00
2023-12-17T13:29:21.748Z,102760.75
2023-12-17T13:31:48.522Z,102755.75
2023-12-17T13:34:15.607Z,102744.13
2023-12-17T13:36:42.339Z,102739.41
2023-12-17T13:39:09.292Z,102737.06
2023-12-17T13:41:44.688Z,102741.94
2023-12-17T13:44:15.168Z,102727.59
2023-12-17T13:46:44.951Z,102728.56
2023-12-17T13:49:14.407Z,102730.84
2023-12-17T13:51:44.138Z,102733.88
2023-12-17T13:54:10.899Z,102727.50
2023-12-17T13:56:41.829Z,102740.72
2023-12-17T13:59:11.952Z,102743.59
2023-12-17T14:01:40.414Z,102738.28
2023-12-17T14:04:09.776Z,102732.44
2023-12-17T14:06:36.582Z,102738.00
2023-12-17T14:09:03.536Z,102737.63
2023-12-17T14:11:34.361Z,102740.66
2023-12-17T14:14:01.812Z,102734.25
2023-12-17T14:16:28.451Z,102729.16
2023-12-17T14:18:56.467Z,102733.56
2023-12-17T14:21:23.268Z,102736.59
2023-12-17T14:23:50.053Z,102731.66
2023-12-17T14:26:17.027Z,102732.09
2023-12-17T14:28:47.948Z,102725.81
2023-12-17T14:31:14.850Z,102723.38
2023-12-17T14:33:41.946Z,102719.75
2023-12-17T14:36:09.448Z,102728.41
2023-12-17T14:38:39.341Z,102724.97
2023-12-17T14:41:08.657Z,102709.44
2023-12-17T14:43:35.349Z,102719.16
2023-12-17T14:46:04.180Z,102718.97
2023-12-17T14:48:31.326Z,102714.41
2023-12-17T14:50:58.166Z,102709.19
2023-12-17T14:53:25.044Z,102722.19
2023-12-17T14:55:51.793Z,102727.41
2023-12-17T14:58:18.601Z,102728.75
2023-12-17T15:00:51.637Z,102731.66
2023-12-17T15:03:18.920Z,102729.09
2023-12-17T15:05:46.632Z,102732.88
2023-12-17T15:08:16.393Z,102738.94
2023-12-17T15:10:44.608Z,102733.97
2023-12-17T15:13:11.866Z,102734.13
2023-12-17T15:15:38.801Z,102734.31
2023-12-17T15:18:05.814Z,102740.38
2023-12-17T15:20:32.719Z,102738.56
2023-12-17T15:22:59.606Z,102736.59
2023-12-17T15:25:26.316Z,102744.63
2023-12-17T15:27:53.284Z,102740.22
2023-12-17T15:30:23.389Z,102739.78
2023-12-17T15:32:50.177Z,102723.72
2023-12-17T15:35:17.191Z,102727.59
2023-12-17T15:37:44.137Z,102731.75
2023-12-17T15:40:11.128Z,102728.47
2023-12-17T15:42:37.970Z,102731.66
2023-12-17T15:45:05.298Z,102726.38
2023-12-17T15:47:34.467Z,102719.22
2023-12-17T15:50:07.900Z,102723.47
2023-12-17T15:52:35.017Z,102716.31
2023-12-17T15:55:02.395Z,102720.53
2023-12-17T15:57:29.471Z,102718.16
2023-12-17T15:59:56.377Z,102723.94
2023-12-17T16:02:23.328Z,102730.25
2023-12-17T16:04:50.036Z,102735.34
2023-12-17T16:07:17.033Z,102732.59
2023-12-17T16:09:43.786Z,102733.94
2023-12-17T16:12:10.781Z,102732.91
2023-12-17T16:14:37.607Z,102733.56
2023-12-17T16:17:04.660Z,102738.75
2023-12-17T16:19:31.585Z,102737.34
2023-12-17T16:22:00.748Z,102742.81
2023-12-17T16:24:28.026Z,102731.22
2023-12-17T16:26:55.395Z,102718.94
2023-12-17T16:29:22.199Z,102729.16
2023-12-17T16:31:48.881Z,102725.00
2023-12-17T16:34:16.044Z,102726.13
2023-12-17T16:36:46.158Z,102726.41
2023-12-17T16:39:13.001Z,102734.50
2023-12-17T16:41:44.021Z,102743.97
2023-12-17T16:44:10.745Z,102737.44
2023-12-17T16:46:40.596Z,102730.00
2023-12-17T16:49:07.353Z,102726.50
2023-12-17T16:51:34.122Z,102725.16
2023-12-17T16:54:00.834Z,102729.22
2023-12-17T16:56:27.866Z,102738.66
2023-12-17T16:58:54.641Z,102741.19
2023-12-17T17:01:24.470Z,102746.72
2023-12-17T17:03:51.316Z,102746.09
2023-12-17T17:06:18.135Z,102745.44
2023-12-17T17:08:45.034Z,102749.69
2023-12-17T17:11:13.695Z,102741.69
2023-12-17T17:13:41.251Z,102740.63
2023-12-17T17:16:08.495Z,102735.34
2023-12-17T17:18:35.439Z,102733.22
2023-12-17T17:21:02.350Z,102731.72
2023-12-17T17:23:29.194Z,102734.69
2023-12-17T17:25:57.580Z,102729.88
2023-12-17T17:28:24.506Z,102723.47
2023-12-17T17:30:51.408Z,102719.03
2023-12-17T17:33:18.453Z,102714.66
2023-12-17T17:35:45.632Z,102717.41
2023-12-17T17:38:12.384Z,102709.19
2023-12-17T17:40:39.250Z,102716.56
2023-12-17T17:43:06.034Z,102714.34
2023-12-17T17:45:32.840Z,102715.63
2023-12-17T17:48:02.732Z,102717.81
2023-12-17T17:50:29.640Z,102724.97
2023-12-17T17:52:56.360Z,102719.03
2023-12-17T17:55:23.138Z,102712.91
2023-12-17T17:57:52.752Z,102705.59
2023-12-17T18:00:19.954Z,102716.34
2023-12-17T18:02:46.742Z,102717.19
2023-12-17T18:05:14.908Z,102712.31
2023-12-17T18:07:41.696Z,102724.44
2023-12-17T18:10:11.469Z,102737.03
2023-12-17T18:12:38.419Z,102729.59
2023-12-17T18:15:05.915Z,102739.28
2023-12-17T18:17:32.861Z,102735.03
2023-12-17T18:20:03.766Z,102721.81
2023-12-17T18:22:30.485Z,102718.19
2023-12-17T18:25:01.946Z,102733.47
2023-12-17T18:27:28.787Z,102722.75
2023-12-17T18:29:55.941Z,102728.22
2023-12-17T18:32:23.029Z,102727.34
2023-12-17T18:34:49.792Z,102721.34
2023-12-17T18:37:16.542Z,102713.31
2023-12-17T18:39:43.312Z,102700.59
2023-12-17T18:42:10.223Z,102687.44
2023-12-17T18:44:37.015Z,102687.47
2023-12-17T18:47:03.993Z,102689.31
2023-12-17T18:49:31.040Z,102699.38
2023-12-17T18:51:57.939Z,102690.00
2023-12-17T18:54:24.636Z,102694.16
2023-12-17T18:56:51.326Z,102690.41
2023-12-17T18:59:18.094Z,102679.50
2023-12-17T19:01:47.965Z,102674.03
2023-12-17T19:04:17.963Z,102690.41
2023-12-17T19:06:48.204Z,102693.03
2023-12-17T19:09:14.943Z,102691.03
2023-12-17T19:11:41.661Z,102690.03
2023-12-17T19:14:08.451Z,102688.47
2023-12-17T19:16:35.191Z,102682.50
2023-12-17T19:19:02.091Z,102685.97
2023-12-17T19:21:28.843Z,102688.22
2023-12-17T19:23:55.660Z,102695.56
2023-12-17T19:26:22.364Z,102703.53
2023-12-17T19:28:49.093Z,102696.56
2023-12-17T19:31:15.886Z,102687.22
2023-12-17T19:33:43.495Z,102694.88
2023-12-17T19:36:10.238Z,102687.34
2023-12-17T19:38:36.934Z,102694.81
2023-12-17T19:41:03.719Z,102688.03
2023-12-17T19:43:30.436Z,102685.44
2023-12-17T19:45:57.340Z,102669.22
2023-12-17T19:48:26.557Z,102671.34
2023-12-17T19:50:53.735Z,102662.53
2023-12-17T19:53:20.375Z,102668.63
2023-12-17T19:55:47.115Z,102678.50
2023-12-17T19:58:14.217Z,102674.91
2023-12-17T20:00:41.055Z,102666.91
2023-12-17T20:03:07.899Z,102659.91
2023-12-17T20:05:34.661Z,102635.03
2023-12-17T20:08:01.417Z,102637.88
2023-12-17T20:10:28.120Z,102640.53
2023-12-17T20:12:54.958Z,102655.69
2023-12-17T20:15:21.762Z,102655.75
2023-12-17T20:17:48.626Z,102659.66
2023-12-17T20:20:15.778Z,102663.03
2023-12-17T20:22:45.443Z,102655.56
2023-12-17T20:25:12.399Z,102645.75
2023-12-17T20:27:40.269Z,102639.75
2023-12-17T20:30:07.718Z,102634.41
2023-12-17T20:32:34.884Z,102645.53
2023-12-17T20:35:03.817Z,102647.56
2023-12-17T20:37:30.694Z,102652.88
2023-12-17T20:40:00.223Z,102659.34
2023-12-17T20:42:27.104Z,102657.34
2023-12-17T20:44:58.497Z,102664.13
2023-12-17T20:47:37.263Z,102665.09
2023-12-17T20:50:07.804Z,102671.28
2023-12-17T20:52:34.551Z,102670.25
2023-12-17T20:55:06.778Z,102663.59
2023-12-17T20:57:34.452Z,102658.59
2023-12-17T21:00:01.226Z,102653.50
2023-12-17T21:02:27.973Z,102655.44
2023-12-17T21:04:54.715Z,102645.69
2023-12-17T21:07:21.447Z,102650.84
2023-12-17T21:09:48.347Z,102652.19
2023-12-17T21:12:15.176Z,102641.00
2023-12-17T21:14:41.831Z,102643.44
2023-12-17T21:17:08.665Z,102632.72
2023-12-17T21:19:35.985Z,102623.66
2023-12-17T21:22:02.955Z,102622.94
2023-12-17T21:24:29.791Z,102622.44
2023-12-17T21:26:58.308Z,102622.59
2023-12-17T21:29:25.393Z,102624.63
2023-12-17T21:31:52.344Z,102620.75
2023-12-17T21:34:19.080Z,102623.31
2023-12-17T21:36:45.923Z,102633.59
2023-12-17T21:39:12.670Z,102634.25
2023-12-17T21:41:39.460Z,102633.50
2023-12-17T21:44:06.243Z,102627.38
2023-12-17T21:46:32.945Z,102612.56
2023-12-17T21:48:59.881Z,102629.66
2023-12-17T21:51:26.926Z,102634.09
2023-12-17T21:53:53.697Z,102642.75
2023-12-17T21:56:20.413Z,102643.78
2023-12-17T21:58:47.078Z,102640.03
2023-12-17T22:01:14.006Z,102634.75
2023-12-17T22:03:40.793Z,102646.72
2023-12-17T22:06:07.749Z,102660.91
2023-12-17T22:08:34.692Z,102637.84
2023-12-17T22:11:03.000Z,102632.25
2023-12-17T22:13:29.771Z,102630.97
2023-12-17T22:15:56.455Z,102619.06
2023-12-17T22:18:23.290Z,102632.97
2023-12-17T22:20:50.025Z,102634.88
2023-12-17T22:23:16.824Z,102632.13
2023-12-17T22:25:43.765Z,102619.34
2023-12-17T22:28:10.687Z,102628.25
2023-12-17T22:30:37.614Z,102627.88
2023-12-17T22:33:04.829Z,102620.75
2023-12-17T22:35:31.633Z,102603.09
2023-12-17T22:37:58.307Z,102605.63
2023-12-17T22:40:25.035Z,102617.22
2023-12-17T22:42:51.718Z,102609.19
2023-12-17T22:45:18.495Z,102607.50
2023-12-17T22:47:45.690Z,102597.97
2023-12-17T22:50:13.086Z,102593.56
2023-12-17T22:52:39.774Z,102577.56
2023-12-17T22:55:07.677Z,102594.44
2023-12-17T22:57:34.420Z,102609.59
2023-12-17T23:00:01.168Z,102606.22
2023-12-17T23:02:27.856Z,102593.19
2023-12-17T23:04:54.658Z,102591.25
2023-12-17T23:07:22.923Z,102589.78
2023-12-17T23:09:49.671Z,102576.75
2023-12-17T23:12:16.687Z,102589.19
2023-12-17T23:14:43.560Z,102576.59
2023-12-17T23:17:10.383Z,102568.22
2023-12-17T23:19:37.138Z,102567.91
2023-12-17T23:22:05.052Z,102567.19
2023-12-17T23:24:34.840Z,102562.25
2023-12-17T23:27:01.700Z,102568.06
2023-12-17T23:29:29.437Z,102561.19
2023-12-17T23:31:56.093Z,102573.50
2023-12-17T23:34:23.088Z,102578.97
2023-12-17T23:36:50.117Z,102569.97
2023-12-17T23:39:16.948Z,102575.88
2023-12-17T23:41:43.747Z,102568.22
2023-12-17T23:44:10.537Z,102560.41
2023-12-17T23:46:37.246Z,102554.94
2023-12-17T23:49:04.092Z,102544.28
2023-12-17T23:51:30.878Z,102538.47
2023-12-17T23:53:57.708Z,102543.88
2023-12-17T23:56:24.601Z,102543.50
2023-12-17T23:58:51.387Z,102558.00
